Аэропорт
Тайпин (ZYHB)

 ZYHB / HRB

China
CN-23
Харбин
 45.62340, 126.25000  / 457 ft

 ZYHB 182200Z 31004MPS CAVOK 13/11 Q1009 NOSIG
 TAF ZYHB 180903Z 1812/1912 28004MPS 6000 BKN030 TX16/1906Z TN11/1821Z TEMPO 1817/1822 2000 BR

2020 © VATRUS division (Privacy Policy)